sensor_id;sensor_type;location;lat;lon;timestamp;P1;durP1;ratioP1;P2;durP2;ratioP2
7027;SDS011;3555;53.248;10.336;2023-03-08T00:00:19;7.43;;;2.60;;
7027;SDS011;3555;53.248;10.336;2023-03-08T00:02:46;3.10;;;2.17;;
7027;SDS011;3555;53.248;10.336;2023-03-08T00:05:15;3.57;;;2.47;;
7027;SDS011;3555;53.248;10.336;2023-03-08T00:07:42;4.23;;;2.60;;
7027;SDS011;3555;53.248;10.336;2023-03-08T00:10:09;4.00;;;2.40;;
7027;SDS011;3555;53.248;10.336;2023-03-08T00:12:36;4.13;;;2.43;;
7027;SDS011;3555;53.248;10.336;2023-03-08T00:15:04;6.97;;;2.70;;
7027;SDS011;3555;53.248;10.336;2023-03-08T00:17:31;3.73;;;2.33;;
7027;SDS011;3555;53.248;10.336;2023-03-08T00:20:01;4.10;;;2.60;;
7027;SDS011;3555;53.248;10.336;2023-03-08T00:22:31;4.10;;;2.77;;
7027;SDS011;3555;53.248;10.336;2023-03-08T00:25:00;4.07;;;2.77;;
7027;SDS011;3555;53.248;10.336;2023-03-08T00:27:27;6.73;;;2.90;;
7027;SDS011;3555;53.248;10.336;2023-03-08T00:29:54;6.80;;;3.20;;
7027;SDS011;3555;53.248;10.336;2023-03-08T00:32:21;9.47;;;2.93;;
7027;SDS011;3555;53.248;10.336;2023-03-08T00:34:49;7.10;;;3.13;;
7027;SDS011;3555;53.248;10.336;2023-03-08T00:37:16;3.83;;;2.93;;
7027;SDS011;3555;53.248;10.336;2023-03-08T00:39:46;5.47;;;3.00;;
7027;SDS011;3555;53.248;10.336;2023-03-08T00:42:15;3.60;;;2.97;;
7027;SDS011;3555;53.248;10.336;2023-03-08T00:44:42;6.77;;;3.40;;
7027;SDS011;3555;53.248;10.336;2023-03-08T00:47:09;4.37;;;3.40;;
7027;SDS011;3555;53.248;10.336;2023-03-08T00:49:36;5.33;;;3.30;;
7027;SDS011;3555;53.248;10.336;2023-03-08T00:52:03;5.90;;;3.20;;
7027;SDS011;3555;53.248;10.336;2023-03-08T00:54:30;4.70;;;3.40;;
7027;SDS011;3555;53.248;10.336;2023-03-08T00:56:58;10.30;;;3.90;;
7027;SDS011;3555;53.248;10.336;2023-03-08T00:59:25;6.80;;;4.00;;
7027;SDS011;3555;53.248;10.336;2023-03-08T01:01:52;6.67;;;3.67;;
7027;SDS011;3555;53.248;10.336;2023-03-08T01:04:19;8.77;;;3.77;;
7027;SDS011;3555;53.248;10.336;2023-03-08T01:06:46;5.13;;;3.70;;
7027;SDS011;3555;53.248;10.336;2023-03-08T01:09:13;5.53;;;3.77;;
7027;SDS011;3555;53.248;10.336;2023-03-08T01:11:40;7.30;;;4.17;;
7027;SDS011;3555;53.248;10.336;2023-03-08T01:14:09;5.03;;;4.10;;
7027;SDS011;3555;53.248;10.336;2023-03-08T01:16:36;7.70;;;4.50;;
7027;SDS011;3555;53.248;10.336;2023-03-08T01:19:04;4.43;;;3.60;;
7027;SDS011;3555;53.248;10.336;2023-03-08T01:21:31;9.63;;;4.20;;
7027;SDS011;3555;53.248;10.336;2023-03-08T01:23:58;4.70;;;4.20;;
7027;SDS011;3555;53.248;10.336;2023-03-08T01:26:25;6.30;;;4.10;;
7027;SDS011;3555;53.248;10.336;2023-03-08T01:28:52;5.40;;;4.53;;
7027;SDS011;3555;53.248;10.336;2023-03-08T01:31:21;8.77;;;4.73;;
7027;SDS011;3555;53.248;10.336;2023-03-08T01:33:49;7.73;;;5.73;;
7027;SDS011;3555;53.248;10.336;2023-03-08T01:36:17;6.33;;;4.63;;
7027;SDS011;3555;53.248;10.336;2023-03-08T01:38:46;8.07;;;5.40;;
7027;SDS011;3555;53.248;10.336;2023-03-08T01:41:14;5.53;;;4.87;;
7027;SDS011;3555;53.248;10.336;2023-03-08T01:43:43;7.73;;;5.13;;
7027;SDS011;3555;53.248;10.336;2023-03-08T01:46:15;7.20;;;5.33;;
7027;SDS011;3555;53.248;10.336;2023-03-08T01:48:46;8.03;;;5.80;;
7027;SDS011;3555;53.248;10.336;2023-03-08T01:51:19;7.43;;;5.90;;
7027;SDS011;3555;53.248;10.336;2023-03-08T01:53:49;8.90;;;6.37;;
7027;SDS011;3555;53.248;10.336;2023-03-08T01:56:17;9.30;;;6.17;;
7027;SDS011;3555;53.248;10.336;2023-03-08T01:58:45;11.37;;;6.20;;
7027;SDS011;3555;53.248;10.336;2023-03-08T02:01:16;10.20;;;7.03;;
7027;SDS011;3555;53.248;10.336;2023-03-08T02:03:45;8.43;;;5.90;;
7027;SDS011;3555;53.248;10.336;2023-03-08T02:06:14;7.97;;;6.00;;
7027;SDS011;3555;53.248;10.336;2023-03-08T02:08:42;9.33;;;6.43;;
7027;SDS011;3555;53.248;10.336;2023-03-08T02:11:09;9.27;;;6.17;;
7027;SDS011;3555;53.248;10.336;2023-03-08T02:13:37;6.40;;;5.53;;
7027;SDS011;3555;53.248;10.336;2023-03-08T02:16:05;8.77;;;6.27;;
7027;SDS011;3555;53.248;10.336;2023-03-08T02:18:34;9.73;;;7.40;;
7027;SDS011;3555;53.248;10.336;2023-03-08T02:21:03;10.40;;;7.37;;
7027;SDS011;3555;53.248;10.336;2023-03-08T02:23:31;9.70;;;6.90;;
7027;SDS011;3555;53.248;10.336;2023-03-08T02:25:59;10.60;;;7.63;;
7027;SDS011;3555;53.248;10.336;2023-03-08T02:28:28;9.73;;;7.00;;
7027;SDS011;3555;53.248;10.336;2023-03-08T02:30:56;9.60;;;6.57;;
7027;SDS011;3555;53.248;10.336;2023-03-08T02:33:23;8.73;;;6.60;;
7027;SDS011;3555;53.248;10.336;2023-03-08T02:35:50;11.00;;;7.07;;
7027;SDS011;3555;53.248;10.336;2023-03-08T02:38:18;9.57;;;6.43;;
7027;SDS011;3555;53.248;10.336;2023-03-08T02:40:47;7.47;;;5.43;;
7027;SDS011;3555;53.248;10.336;2023-03-08T02:43:15;8.73;;;5.53;;
7027;SDS011;3555;53.248;10.336;2023-03-08T02:45:43;7.63;;;5.93;;
7027;SDS011;3555;53.248;10.336;2023-03-08T02:48:10;8.60;;;5.40;;
7027;SDS011;3555;53.248;10.336;2023-03-08T02:50:38;8.00;;;6.63;;
7027;SDS011;3555;53.248;10.336;2023-03-08T02:53:05;9.57;;;6.20;;
7027;SDS011;3555;53.248;10.336;2023-03-08T02:55:32;10.03;;;6.57;;
7027;SDS011;3555;53.248;10.336;2023-03-08T02:58:01;11.87;;;7.03;;
7027;SDS011;3555;53.248;10.336;2023-03-08T03:00:28;9.40;;;7.20;;
7027;SDS011;3555;53.248;10.336;2023-03-08T03:02:55;18.03;;;6.50;;
7027;SDS011;3555;53.248;10.336;2023-03-08T03:05:22;13.40;;;6.70;;
7027;SDS011;3555;53.248;10.336;2023-03-08T03:07:49;12.80;;;7.10;;
7027;SDS011;3555;53.248;10.336;2023-03-08T03:10:16;10.00;;;6.57;;
7027;SDS011;3555;53.248;10.336;2023-03-08T03:12:43;8.43;;;5.70;;
7027;SDS011;3555;53.248;10.336;2023-03-08T03:15:12;10.00;;;5.87;;
7027;SDS011;3555;53.248;10.336;2023-03-08T03:17:39;10.83;;;6.40;;
7027;SDS011;3555;53.248;10.336;2023-03-08T03:20:06;8.67;;;5.10;;
7027;SDS011;3555;53.248;10.336;2023-03-08T03:22:34;8.67;;;5.20;;
7027;SDS011;3555;53.248;10.336;2023-03-08T03:25:02;8.20;;;5.53;;
7027;SDS011;3555;53.248;10.336;2023-03-08T03:27:29;6.87;;;4.97;;
7027;SDS011;3555;53.248;10.336;2023-03-08T03:29:56;7.87;;;4.97;;
7027;SDS011;3555;53.248;10.336;2023-03-08T03:32:24;6.43;;;4.90;;
7027;SDS011;3555;53.248;10.336;2023-03-08T03:34:51;7.23;;;5.27;;
7027;SDS011;3555;53.248;10.336;2023-03-08T03:37:18;7.30;;;4.80;;
7027;SDS011;3555;53.248;10.336;2023-03-08T03:39:45;10.37;;;4.83;;
7027;SDS011;3555;53.248;10.336;2023-03-08T03:42:12;6.67;;;5.60;;
7027;SDS011;3555;53.248;10.336;2023-03-08T03:44:39;6.87;;;5.00;;
7027;SDS011;3555;53.248;10.336;2023-03-08T03:47:06;5.53;;;4.50;;
7027;SDS011;3555;53.248;10.336;2023-03-08T03:49:34;8.63;;;4.87;;
7027;SDS011;3555;53.248;10.336;2023-03-08T03:52:01;6.60;;;4.60;;
7027;SDS011;3555;53.248;10.336;2023-03-08T03:54:28;10.37;;;4.93;;
7027;SDS011;3555;53.248;10.336;2023-03-08T03:56:55;7.93;;;4.60;;
7027;SDS011;3555;53.248;10.336;2023-03-08T03:59:23;5.47;;;4.70;;
7027;SDS011;3555;53.248;10.336;2023-03-08T04:01:50;8.53;;;4.90;;
7027;SDS011;3555;53.248;10.336;2023-03-08T04:04:17;9.47;;;4.83;;
7027;SDS011;3555;53.248;10.336;2023-03-08T04:06:46;6.90;;;4.50;;
7027;SDS011;3555;53.248;10.336;2023-03-08T04:09:14;7.57;;;4.57;;
7027;SDS011;3555;53.248;10.336;2023-03-08T04:11:42;4.97;;;3.97;;
7027;SDS011;3555;53.248;10.336;2023-03-08T04:14:08;6.17;;;4.60;;
7027;SDS011;3555;53.248;10.336;2023-03-08T04:16:36;5.17;;;4.30;;
7027;SDS011;3555;53.248;10.336;2023-03-08T04:19:05;7.87;;;4.83;;
7027;SDS011;3555;53.248;10.336;2023-03-08T04:21:33;7.53;;;4.60;;
7027;SDS011;3555;53.248;10.336;2023-03-08T04:24:01;7.33;;;4.20;;
7027;SDS011;3555;53.248;10.336;2023-03-08T04:26:28;4.27;;;3.87;;
7027;SDS011;3555;53.248;10.336;2023-03-08T04:28:56;8.03;;;4.77;;
7027;SDS011;3555;53.248;10.336;2023-03-08T04:31:24;7.80;;;4.60;;
7027;SDS011;3555;53.248;10.336;2023-03-08T04:33:52;6.37;;;4.00;;
7027;SDS011;3555;53.248;10.336;2023-03-08T04:36:19;6.53;;;4.17;;
7027;SDS011;3555;53.248;10.336;2023-03-08T04:38:47;6.87;;;4.47;;
7027;SDS011;3555;53.248;10.336;2023-03-08T04:41:16;7.53;;;4.90;;
7027;SDS011;3555;53.248;10.336;2023-03-08T04:43:44;7.27;;;5.07;;
7027;SDS011;3555;53.248;10.336;2023-03-08T04:46:13;8.40;;;5.43;;
7027;SDS011;3555;53.248;10.336;2023-03-08T04:48:40;7.43;;;5.23;;
7027;SDS011;3555;53.248;10.336;2023-03-08T04:51:08;7.47;;;5.13;;
7027;SDS011;3555;53.248;10.336;2023-03-08T04:53:36;9.23;;;5.63;;
7027;SDS011;3555;53.248;10.336;2023-03-08T04:56:05;7.03;;;5.70;;
7027;SDS011;3555;53.248;10.336;2023-03-08T04:58:35;7.57;;;5.47;;
7027;SDS011;3555;53.248;10.336;2023-03-08T05:01:09;8.40;;;5.50;;
7027;SDS011;3555;53.248;10.336;2023-03-08T05:03:37;7.53;;;4.97;;
7027;SDS011;3555;53.248;10.336;2023-03-08T05:06:04;4.77;;;4.20;;
7027;SDS011;3555;53.248;10.336;2023-03-08T05:08:32;5.73;;;4.00;;
7027;SDS011;3555;53.248;10.336;2023-03-08T05:10:59;10.77;;;4.57;;
7027;SDS011;3555;53.248;10.336;2023-03-08T05:13:29;9.23;;;4.13;;
7027;SDS011;3555;53.248;10.336;2023-03-08T05:15:59;5.33;;;4.23;;
7027;SDS011;3555;53.248;10.336;2023-03-08T05:18:27;7.20;;;4.40;;
7027;SDS011;3555;53.248;10.336;2023-03-08T05:20:54;4.70;;;4.07;;
7027;SDS011;3555;53.248;10.336;2023-03-08T05:23:22;4.73;;;3.90;;
7027;SDS011;3555;53.248;10.336;2023-03-08T05:25:51;6.00;;;4.20;;
7027;SDS011;3555;53.248;10.336;2023-03-08T05:28:19;4.17;;;3.63;;
7027;SDS011;3555;53.248;10.336;2023-03-08T05:30:47;6.77;;;4.00;;
7027;SDS011;3555;53.248;10.336;2023-03-08T05:33:16;5.13;;;4.17;;
7027;SDS011;3555;53.248;10.336;2023-03-08T05:35:50;5.93;;;4.23;;
7027;SDS011;3555;53.248;10.336;2023-03-08T05:38:18;4.80;;;4.30;;
7027;SDS011;3555;53.248;10.336;2023-03-08T05:40:45;6.40;;;4.53;;
7027;SDS011;3555;53.248;10.336;2023-03-08T05:43:12;6.63;;;4.17;;
7027;SDS011;3555;53.248;10.336;2023-03-08T05:45:39;5.13;;;4.40;;
7027;SDS011;3555;53.248;10.336;2023-03-08T05:48:06;5.93;;;4.40;;
7027;SDS011;3555;53.248;10.336;2023-03-08T05:50:36;6.40;;;4.63;;
7027;SDS011;3555;53.248;10.336;2023-03-08T05:53:03;8.10;;;4.40;;
7027;SDS011;3555;53.248;10.336;2023-03-08T05:55:30;7.83;;;5.23;;
7027;SDS011;3555;53.248;10.336;2023-03-08T05:57:57;5.83;;;4.97;;
7027;SDS011;3555;53.248;10.336;2023-03-08T06:00:24;9.63;;;4.93;;
7027;SDS011;3555;53.248;10.336;2023-03-08T06:02:52;8.67;;;4.77;;
7027;SDS011;3555;53.248;10.336;2023-03-08T06:05:19;10.30;;;4.33;;
7027;SDS011;3555;53.248;10.336;2023-03-08T06:07:47;10.60;;;4.67;;
7027;SDS011;3555;53.248;10.336;2023-03-08T06:10:14;6.67;;;4.50;;
7027;SDS011;3555;53.248;10.336;2023-03-08T06:12:41;5.87;;;4.87;;
7027;SDS011;3555;53.248;10.336;2023-03-08T06:15:09;6.63;;;5.00;;
7027;SDS011;3555;53.248;10.336;2023-03-08T06:17:37;6.50;;;4.37;;
7027;SDS011;3555;53.248;10.336;2023-03-08T06:20:04;7.53;;;4.40;;
7027;SDS011;3555;53.248;10.336;2023-03-08T06:22:32;5.60;;;4.53;;
7027;SDS011;3555;53.248;10.336;2023-03-08T06:25:00;6.80;;;4.23;;
7027;SDS011;3555;53.248;10.336;2023-03-08T06:27:28;7.90;;;4.50;;
7027;SDS011;3555;53.248;10.336;2023-03-08T06:29:55;7.57;;;4.70;;
7027;SDS011;3555;53.248;10.336;2023-03-08T06:32:22;9.00;;;4.30;;
7027;SDS011;3555;53.248;10.336;2023-03-08T06:34:48;7.03;;;4.33;;
7027;SDS011;3555;53.248;10.336;2023-03-08T06:37:15;6.07;;;4.63;;
7027;SDS011;3555;53.248;10.336;2023-03-08T06:39:42;5.83;;;3.70;;
7027;SDS011;3555;53.248;10.336;2023-03-08T06:42:11;6.73;;;4.03;;
7027;SDS011;3555;53.248;10.336;2023-03-08T06:44:38;6.57;;;3.97;;
7027;SDS011;3555;53.248;10.336;2023-03-08T06:47:05;4.97;;;3.90;;
7027;SDS011;3555;53.248;10.336;2023-03-08T06:49:32;5.83;;;3.80;;
7027;SDS011;3555;53.248;10.336;2023-03-08T06:51:59;5.03;;;3.90;;
7027;SDS011;3555;53.248;10.336;2023-03-08T06:54:26;4.37;;;3.57;;
7027;SDS011;3555;53.248;10.336;2023-03-08T06:56:53;6.90;;;4.27;;
7027;SDS011;3555;53.248;10.336;2023-03-08T06:59:22;7.73;;;3.93;;
7027;SDS011;3555;53.248;10.336;2023-03-08T07:01:49;5.00;;;4.20;;
7027;SDS011;3555;53.248;10.336;2023-03-08T07:04:16;5.30;;;3.87;;
7027;SDS011;3555;53.248;10.336;2023-03-08T07:06:43;9.10;;;4.47;;
7027;SDS011;3555;53.248;10.336;2023-03-08T07:09:10;7.47;;;4.07;;
7027;SDS011;3555;53.248;10.336;2023-03-08T07:11:38;6.63;;;4.30;;
7027;SDS011;3555;53.248;10.336;2023-03-08T07:14:05;5.70;;;4.40;;
7027;SDS011;3555;53.248;10.336;2023-03-08T07:16:33;8.57;;;3.97;;
7027;SDS011;3555;53.248;10.336;2023-03-08T07:19:00;5.20;;;3.80;;
7027;SDS011;3555;53.248;10.336;2023-03-08T07:21:27;8.13;;;4.53;;
7027;SDS011;3555;53.248;10.336;2023-03-08T07:23:54;5.40;;;4.43;;
7027;SDS011;3555;53.248;10.336;2023-03-08T07:26:21;6.47;;;4.80;;
7027;SDS011;3555;53.248;10.336;2023-03-08T07:28:48;7.90;;;4.23;;
7027;SDS011;3555;53.248;10.336;2023-03-08T07:31:15;9.73;;;4.40;;
7027;SDS011;3555;53.248;10.336;2023-03-08T07:33:44;11.50;;;4.33;;
7027;SDS011;3555;53.248;10.336;2023-03-08T07:36:11;6.60;;;4.77;;
7027;SDS011;3555;53.248;10.336;2023-03-08T07:38:38;5.93;;;4.40;;
7027;SDS011;3555;53.248;10.336;2023-03-08T07:41:05;7.27;;;4.53;;
7027;SDS011;3555;53.248;10.336;2023-03-08T07:43:32;6.80;;;3.97;;
7027;SDS011;3555;53.248;10.336;2023-03-08T07:46:00;6.00;;;4.03;;
7027;SDS011;3555;53.248;10.336;2023-03-08T07:48:28;5.70;;;3.90;;
7027;SDS011;3555;53.248;10.336;2023-03-08T07:51:00;4.70;;;3.93;;
7027;SDS011;3555;53.248;10.336;2023-03-08T07:53:29;5.47;;;4.03;;
7027;SDS011;3555;53.248;10.336;2023-03-08T07:55:57;6.23;;;3.83;;
7027;SDS011;3555;53.248;10.336;2023-03-08T07:58:24;8.07;;;3.90;;
7027;SDS011;3555;53.248;10.336;2023-03-08T08:00:51;6.50;;;4.03;;
7027;SDS011;3555;53.248;10.336;2023-03-08T08:03:18;5.03;;;3.57;;
7027;SDS011;3555;53.248;10.336;2023-03-08T08:05:46;6.03;;;4.00;;
7027;SDS011;3555;53.248;10.336;2023-03-08T08:08:14;6.27;;;4.43;;
7027;SDS011;3555;53.248;10.336;2023-03-08T08:10:41;4.33;;;3.70;;
7027;SDS011;3555;53.248;10.336;2023-03-08T08:13:08;5.70;;;3.70;;
7027;SDS011;3555;53.248;10.336;2023-03-08T08:15:35;6.30;;;3.70;;
7027;SDS011;3555;53.248;10.336;2023-03-08T08:18:02;4.90;;;3.73;;
7027;SDS011;3555;53.248;10.336;2023-03-08T08:20:29;4.93;;;4.10;;
7027;SDS011;3555;53.248;10.336;2023-03-08T08:22:56;6.03;;;3.70;;
7027;SDS011;3555;53.248;10.336;2023-03-08T08:25:24;4.83;;;3.83;;
7027;SDS011;3555;53.248;10.336;2023-03-08T08:27:51;4.63;;;3.73;;
7027;SDS011;3555;53.248;10.336;2023-03-08T08:30:18;4.83;;;3.60;;
7027;SDS011;3555;53.248;10.336;2023-03-08T08:32:46;4.70;;;3.63;;
7027;SDS011;3555;53.248;10.336;2023-03-08T08:35:13;6.50;;;4.30;;
7027;SDS011;3555;53.248;10.336;2023-03-08T08:37:40;4.93;;;3.80;;
7027;SDS011;3555;53.248;10.336;2023-03-08T08:40:07;5.17;;;3.60;;
7027;SDS011;3555;53.248;10.336;2023-03-08T08:42:37;6.53;;;3.93;;
7027;SDS011;3555;53.248;10.336;2023-03-08T08:45:05;4.67;;;3.53;;
7027;SDS011;3555;53.248;10.336;2023-03-08T08:47:32;6.87;;;4.67;;
7027;SDS011;3555;53.248;10.336;2023-03-08T08:49:59;5.67;;;4.10;;
7027;SDS011;3555;53.248;10.336;2023-03-08T08:52:26;5.20;;;3.73;;
7027;SDS011;3555;53.248;10.336;2023-03-08T08:54:52;5.10;;;4.27;;
7027;SDS011;3555;53.248;10.336;2023-03-08T08:57:20;4.13;;;3.70;;
7027;SDS011;3555;53.248;10.336;2023-03-08T08:59:49;10.33;;;3.93;;
7027;SDS011;3555;53.248;10.336;2023-03-08T09:02:15;7.40;;;3.80;;
7027;SDS011;3555;53.248;10.336;2023-03-08T09:04:42;9.30;;;4.43;;
7027;SDS011;3555;53.248;10.336;2023-03-08T09:07:09;6.73;;;4.70;;
7027;SDS011;3555;53.248;10.336;2023-03-08T09:09:36;5.90;;;3.77;;
7027;SDS011;3555;53.248;10.336;2023-03-08T09:12:03;9.00;;;4.03;;
7027;SDS011;3555;53.248;10.336;2023-03-08T09:14:30;4.73;;;3.80;;
7027;SDS011;3555;53.248;10.336;2023-03-08T09:17:00;5.93;;;4.30;;
7027;SDS011;3555;53.248;10.336;2023-03-08T09:19:27;6.27;;;4.70;;
7027;SDS011;3555;53.248;10.336;2023-03-08T09:21:54;5.03;;;3.87;;
7027;SDS011;3555;53.248;10.336;2023-03-08T09:24:21;5.20;;;4.30;;
7027;SDS011;3555;53.248;10.336;2023-03-08T09:26:48;6.27;;;4.23;;
7027;SDS011;3555;53.248;10.336;2023-03-08T09:29:15;6.77;;;4.10;;
7027;SDS011;3555;53.248;10.336;2023-03-08T09:31:41;5.50;;;4.30;;
7027;SDS011;3555;53.248;10.336;2023-03-08T09:34:11;5.27;;;4.00;;
7027;SDS011;3555;53.248;10.336;2023-03-08T09:36:39;6.73;;;4.03;;
7027;SDS011;3555;53.248;10.336;2023-03-08T09:39:07;8.07;;;3.87;;
7027;SDS011;3555;53.248;10.336;2023-03-08T09:44:32;5.10;;;4.03;;
7027;SDS011;3555;53.248;10.336;2023-03-08T09:47:21;5.70;;;4.10;;
7027;SDS011;3555;53.248;10.336;2023-03-08T09:49:58;7.57;;;4.17;;
7027;SDS011;3555;53.248;10.336;2023-03-08T09:52:31;4.63;;;3.70;;
7027;SDS011;3555;53.248;10.336;2023-03-08T09:55:03;5.70;;;4.03;;
7027;SDS011;3555;53.248;10.336;2023-03-08T09:57:38;6.63;;;3.93;;
7027;SDS011;3555;53.248;10.336;2023-03-08T10:00:15;4.33;;;2.90;;
7027;SDS011;3555;53.248;10.336;2023-03-08T10:02:46;4.13;;;3.07;;
7027;SDS011;3555;53.248;10.336;2023-03-08T10:05:25;4.47;;;3.00;;
7027;SDS011;3555;53.248;10.336;2023-03-08T10:07:56;4.97;;;3.50;;
7027;SDS011;3555;53.248;10.336;2023-03-08T10:10:29;6.07;;;3.20;;
7027;SDS011;3555;53.248;10.336;2023-03-08T10:13:17;3.83;;;3.30;;
7027;SDS011;3555;53.248;10.336;2023-03-08T10:16:03;5.90;;;3.57;;
7027;SDS011;3555;53.248;10.336;2023-03-08T10:18:35;5.73;;;3.40;;
7027;SDS011;3555;53.248;10.336;2023-03-08T10:21:07;4.97;;;3.37;;
7027;SDS011;3555;53.248;10.336;2023-03-08T10:23:37;5.93;;;3.13;;
7027;SDS011;3555;53.248;10.336;2023-03-08T10:26:07;5.40;;;3.40;;
7027;SDS011;3555;53.248;10.336;2023-03-08T10:28:35;6.17;;;3.33;;
7027;SDS011;3555;53.248;10.336;2023-03-08T10:31:08;5.83;;;3.00;;
7027;SDS011;3555;53.248;10.336;2023-03-08T10:33:45;4.20;;;3.00;;
7027;SDS011;3555;53.248;10.336;2023-03-08T10:36:18;4.20;;;3.47;;
7027;SDS011;3555;53.248;10.336;2023-03-08T10:38:55;3.40;;;2.80;;
7027;SDS011;3555;53.248;10.336;2023-03-08T10:41:35;4.10;;;3.00;;
7027;SDS011;3555;53.248;10.336;2023-03-08T10:44:09;4.40;;;2.40;;
7027;SDS011;3555;53.248;10.336;2023-03-08T10:46:44;4.43;;;2.90;;
7027;SDS011;3555;53.248;10.336;2023-03-08T10:49:14;5.13;;;3.20;;
7027;SDS011;3555;53.248;10.336;2023-03-08T10:51:51;4.47;;;3.03;;
7027;SDS011;3555;53.248;10.336;2023-03-08T10:54:20;4.90;;;3.00;;
7027;SDS011;3555;53.248;10.336;2023-03-08T10:56:50;3.77;;;2.43;;
7027;SDS011;3555;53.248;10.336;2023-03-08T10:59:19;5.37;;;2.77;;
7027;SDS011;3555;53.248;10.336;2023-03-08T11:01:52;2.80;;;2.30;;
7027;SDS011;3555;53.248;10.336;2023-03-08T11:04:21;5.97;;;2.70;;
7027;SDS011;3555;53.248;10.336;2023-03-08T11:06:49;4.33;;;2.93;;
7027;SDS011;3555;53.248;10.336;2023-03-08T11:09:19;5.23;;;2.73;;
7027;SDS011;3555;53.248;10.336;2023-03-08T11:11:48;2.80;;;2.40;;
7027;SDS011;3555;53.248;10.336;2023-03-08T11:14:15;4.00;;;2.50;;
7027;SDS011;3555;53.248;10.336;2023-03-08T11:16:52;5.57;;;2.80;;
7027;SDS011;3555;53.248;10.336;2023-03-08T11:22:28;3.70;;;2.60;;
7027;SDS011;3555;53.248;10.336;2023-03-08T11:25:10;2.83;;;2.20;;
7027;SDS011;3555;53.248;10.336;2023-03-08T11:30:41;3.80;;;2.43;;
7027;SDS011;3555;53.248;10.336;2023-03-08T11:33:26;3.03;;;2.37;;
7027;SDS011;3555;53.248;10.336;2023-03-08T11:36:04;7.60;;;2.73;;
7027;SDS011;3555;53.248;10.336;2023-03-08T11:38:36;6.43;;;2.73;;
7027;SDS011;3555;53.248;10.336;2023-03-08T11:41:06;3.00;;;2.40;;
7027;SDS011;3555;53.248;10.336;2023-03-08T11:43:53;4.10;;;2.50;;
7027;SDS011;3555;53.248;10.336;2023-03-08T11:46:36;3.17;;;2.57;;
7027;SDS011;3555;53.248;10.336;2023-03-08T11:49:20;6.03;;;2.50;;
7027;SDS011;3555;53.248;10.336;2023-03-08T11:51:56;4.30;;;2.50;;
7027;SDS011;3555;53.248;10.336;2023-03-08T11:54:34;3.03;;;2.30;;
7027;SDS011;3555;53.248;10.336;2023-03-08T11:57:08;3.20;;;2.10;;
7027;SDS011;3555;53.248;10.336;2023-03-08T11:59:38;2.60;;;2.00;;
7027;SDS011;3555;53.248;10.336;2023-03-08T12:02:10;2.73;;;2.20;;
7027;SDS011;3555;53.248;10.336;2023-03-08T12:04:43;4.30;;;2.40;;
7027;SDS011;3555;53.248;10.336;2023-03-08T12:07:22;3.20;;;2.40;;
7027;SDS011;3555;53.248;10.336;2023-03-08T12:09:57;5.90;;;2.57;;
7027;SDS011;3555;53.248;10.336;2023-03-08T12:12:27;3.30;;;2.27;;
7027;SDS011;3555;53.248;10.336;2023-03-08T12:14:58;2.83;;;2.27;;
7027;SDS011;3555;53.248;10.336;2023-03-08T12:17:33;2.67;;;2.40;;
7027;SDS011;3555;53.248;10.336;2023-03-08T12:20:02;5.50;;;2.57;;
7027;SDS011;3555;53.248;10.336;2023-03-08T12:22:39;4.87;;;2.70;;
7027;SDS011;3555;53.248;10.336;2023-03-08T12:25:14;4.00;;;2.63;;
7027;SDS011;3555;53.248;10.336;2023-03-08T12:27:50;5.40;;;2.80;;
7027;SDS011;3555;53.248;10.336;2023-03-08T12:30:22;4.13;;;2.53;;
7027;SDS011;3555;53.248;10.336;2023-03-08T12:32:53;6.80;;;3.23;;
7027;SDS011;3555;53.248;10.336;2023-03-08T12:35:26;3.87;;;2.47;;
7027;SDS011;3555;53.248;10.336;2023-03-08T12:37:55;2.80;;;2.00;;
7027;SDS011;3555;53.248;10.336;2023-03-08T12:40:33;7.77;;;2.40;;
7027;SDS011;3555;53.248;10.336;2023-03-08T12:43:04;2.80;;;2.40;;
7027;SDS011;3555;53.248;10.336;2023-03-08T12:45:32;5.17;;;2.60;;
7027;SDS011;3555;53.248;10.336;2023-03-08T12:48:06;4.43;;;2.20;;
7027;SDS011;3555;53.248;10.336;2023-03-08T12:50:41;2.93;;;2.33;;
7027;SDS011;3555;53.248;10.336;2023-03-08T12:53:20;3.37;;;2.23;;
7027;SDS011;3555;53.248;10.336;2023-03-08T12:55:59;3.33;;;2.40;;
7027;SDS011;3555;53.248;10.336;2023-03-08T12:58:28;3.50;;;2.20;;
7027;SDS011;3555;53.248;10.336;2023-03-08T13:00:57;3.47;;;2.07;;
7027;SDS011;3555;53.248;10.336;2023-03-08T13:03:27;3.27;;;2.60;;
7027;SDS011;3555;53.248;10.336;2023-03-08T13:06:01;4.60;;;2.43;;
7027;SDS011;3555;53.248;10.336;2023-03-08T13:08:41;2.70;;;2.27;;
7027;SDS011;3555;53.248;10.336;2023-03-08T13:11:15;5.23;;;2.27;;
7027;SDS011;3555;53.248;10.336;2023-03-08T13:13:48;3.70;;;2.00;;
7027;SDS011;3555;53.248;10.336;2023-03-08T13:16:21;2.40;;;1.83;;
7027;SDS011;3555;53.248;10.336;2023-03-08T13:19:01;4.70;;;2.30;;
7027;SDS011;3555;53.248;10.336;2023-03-08T13:21:49;6.40;;;2.30;;
7027;SDS011;3555;53.248;10.336;2023-03-08T13:24:27;3.33;;;2.33;;
7027;SDS011;3555;53.248;10.336;2023-03-08T13:27:07;4.10;;;2.03;;
7027;SDS011;3555;53.248;10.336;2023-03-08T13:29:55;2.30;;;2.10;;
7027;SDS011;3555;53.248;10.336;2023-03-08T13:32:24;3.37;;;2.10;;
7027;SDS011;3555;53.248;10.336;2023-03-08T13:34:57;3.17;;;1.90;;
7027;SDS011;3555;53.248;10.336;2023-03-08T13:37:25;3.33;;;2.00;;
7027;SDS011;3555;53.248;10.336;2023-03-08T13:39:54;5.80;;;2.40;;
7027;SDS011;3555;53.248;10.336;2023-03-08T13:42:24;3.67;;;3.07;;
7027;SDS011;3555;53.248;10.336;2023-03-08T13:44:52;2.50;;;1.90;;
7027;SDS011;3555;53.248;10.336;2023-03-08T13:47:31;3.10;;;2.23;;
7027;SDS011;3555;53.248;10.336;2023-03-08T13:50:00;4.80;;;2.27;;
7027;SDS011;3555;53.248;10.336;2023-03-08T13:52:29;2.33;;;2.03;;
7027;SDS011;3555;53.248;10.336;2023-03-08T13:55:00;4.40;;;2.13;;
7027;SDS011;3555;53.248;10.336;2023-03-08T13:57:31;3.53;;;2.13;;
7027;SDS011;3555;53.248;10.336;2023-03-08T14:00:02;3.60;;;2.10;;
7027;SDS011;3555;53.248;10.336;2023-03-08T14:02:48;3.90;;;2.20;;
7027;SDS011;3555;53.248;10.336;2023-03-08T14:05:16;3.00;;;2.00;;
7027;SDS011;3555;53.248;10.336;2023-03-08T14:07:53;2.37;;;1.70;;
7027;SDS011;3555;53.248;10.336;2023-03-08T14:10:21;2.20;;;1.73;;
7027;SDS011;3555;53.248;10.336;2023-03-08T14:12:53;2.33;;;2.10;;
7027;SDS011;3555;53.248;10.336;2023-03-08T14:15:20;3.33;;;2.13;;
7027;SDS011;3555;53.248;10.336;2023-03-08T14:17:47;2.60;;;1.90;;
7027;SDS011;3555;53.248;10.336;2023-03-08T14:20:16;2.47;;;2.10;;
7027;SDS011;3555;53.248;10.336;2023-03-08T14:22:45;3.33;;;2.13;;
7027;SDS011;3555;53.248;10.336;2023-03-08T14:25:24;5.27;;;2.13;;
7027;SDS011;3555;53.248;10.336;2023-03-08T14:27:54;3.77;;;2.13;;
7027;SDS011;3555;53.248;10.336;2023-03-08T14:30:23;6.20;;;2.20;;
7027;SDS011;3555;53.248;10.336;2023-03-08T14:32:56;7.60;;;3.13;;
7027;SDS011;3555;53.248;10.336;2023-03-08T14:35:25;3.10;;;1.97;;
7027;SDS011;3555;53.248;10.336;2023-03-08T14:37:54;5.93;;;2.10;;
7027;SDS011;3555;53.248;10.336;2023-03-08T14:40:24;2.97;;;1.70;;
7027;SDS011;3555;53.248;10.336;2023-03-08T14:42:55;2.30;;;1.70;;
7027;SDS011;3555;53.248;10.336;2023-03-08T14:45:24;2.80;;;1.60;;
7027;SDS011;3555;53.248;10.336;2023-03-08T14:47:58;4.33;;;2.13;;
7027;SDS011;3555;53.248;10.336;2023-03-08T14:50:27;2.83;;;1.70;;
7027;SDS011;3555;53.248;10.336;2023-03-08T14:52:56;3.50;;;1.83;;
7027;SDS011;3555;53.248;10.336;2023-03-08T14:55:25;2.13;;;1.73;;
7027;SDS011;3555;53.248;10.336;2023-03-08T14:57:53;4.20;;;2.03;;
7027;SDS011;3555;53.248;10.336;2023-03-08T15:00:23;3.03;;;1.93;;
7027;SDS011;3555;53.248;10.336;2023-03-08T15:02:53;2.33;;;1.90;;
7027;SDS011;3555;53.248;10.336;2023-03-08T15:05:20;6.23;;;2.40;;
7027;SDS011;3555;53.248;10.336;2023-03-08T15:07:48;4.20;;;2.70;;
7027;SDS011;3555;53.248;10.336;2023-03-08T15:10:18;2.60;;;2.17;;
7027;SDS011;3555;53.248;10.336;2023-03-08T15:12:49;2.90;;;2.40;;
7027;SDS011;3555;53.248;10.336;2023-03-08T15:15:17;3.53;;;2.33;;
7027;SDS011;3555;53.248;10.336;2023-03-08T15:17:44;4.30;;;2.40;;
7027;SDS011;3555;53.248;10.336;2023-03-08T15:20:12;3.37;;;2.00;;
7027;SDS011;3555;53.248;10.336;2023-03-08T15:22:41;4.20;;;2.40;;